createdAt,value
2022-10-30T00:00:48.235Z,14.96
2022-10-30T00:01:48.274Z,15.00
2022-10-30T00:02:48.313Z,14.99
2022-10-30T00:03:48.197Z,15.00
2022-10-30T00:04:48.185Z,14.97
2022-10-30T00:05:48.165Z,15.00
2022-10-30T00:06:48.173Z,15.00
2022-10-30T00:07:48.145Z,15.02
2022-10-30T00:08:48.166Z,15.06
2022-10-30T00:09:48.125Z,15.06
2022-10-30T00:10:48.115Z,15.04
2022-10-30T00:11:48.104Z,15.02
2022-10-30T00:12:48.096Z,15.03
2022-10-30T00:13:48.136Z,15.00
2022-10-30T00:14:48.096Z,14.99
2022-10-30T00:15:48.123Z,15.00
2022-10-30T00:16:48.045Z,15.00
2022-10-30T00:17:48.037Z,14.99
2022-10-30T00:18:48.028Z,14.99
2022-10-30T00:19:48.025Z,14.97
2022-10-30T00:20:48.093Z,14.97
2022-10-30T00:21:47.995Z,14.94
2022-10-30T00:22:47.986Z,14.92
2022-10-30T00:23:47.974Z,14.92
2022-10-30T00:24:47.958Z,14.88
2022-10-30T00:25:47.972Z,14.89
2022-10-30T00:26:47.957Z,14.86
2022-10-30T00:27:47.926Z,14.85
2022-10-30T00:28:47.919Z,14.82
2022-10-30T00:29:47.896Z,14.81
2022-10-30T00:30:47.894Z,14.78
2022-10-30T00:31:47.877Z,14.73
2022-10-30T00:32:47.896Z,14.68
2022-10-30T00:33:47.857Z,14.68
2022-10-30T00:34:47.848Z,14.66
2022-10-30T00:36:47.826Z,14.62
2022-10-30T00:37:47.807Z,14.63
2022-10-30T00:38:47.896Z,14.66
2022-10-30T00:39:47.788Z,14.68
2022-10-30T00:40:47.778Z,14.70
2022-10-30T00:41:47.768Z,14.72
2022-10-30T00:42:47.757Z,14.70
2022-10-30T00:43:47.738Z,14.70
2022-10-30T00:44:47.746Z,14.70
2022-10-30T00:45:47.727Z,14.69
2022-10-30T00:46:47.716Z,14.69
2022-10-30T00:47:47.696Z,14.69
2022-10-30T00:48:47.686Z,14.70
2022-10-30T00:49:47.695Z,14.72
2022-10-30T00:50:47.670Z,14.73
2022-10-30T00:51:47.657Z,14.77
2022-10-30T00:52:47.656Z,14.77
2022-10-30T00:53:47.628Z,14.82
2022-10-30T00:54:47.617Z,14.88
2022-10-30T00:55:47.635Z,14.84
2022-10-30T00:56:47.598Z,14.82
2022-10-30T00:57:47.588Z,14.77
2022-10-30T00:58:47.577Z,14.82
2022-10-30T00:59:47.557Z,14.79
2022-10-30T01:00:47.557Z,14.82
2022-10-30T01:01:47.675Z,14.81
2022-10-30T01:02:47.622Z,14.81
2022-10-30T01:03:47.519Z,14.78
2022-10-30T01:04:47.507Z,14.78
2022-10-30T01:05:47.492Z,14.81
2022-10-30T01:06:47.510Z,14.81
2022-10-30T01:07:47.478Z,14.79
2022-10-30T01:08:47.549Z,14.79
2022-10-30T01:09:47.448Z,14.82
2022-10-30T01:10:47.442Z,14.88
2022-10-30T01:11:47.428Z,14.88
2022-10-30T01:12:47.441Z,14.88
2022-10-30T01:13:47.408Z,14.84
2022-10-30T01:14:47.399Z,14.79
2022-10-30T01:15:47.386Z,14.70
2022-10-30T01:16:47.369Z,14.65
2022-10-30T01:17:47.358Z,14.58
2022-10-30T01:18:47.369Z,14.55
2022-10-30T01:19:47.391Z,14.55
2022-10-30T01:20:47.330Z,14.55
2022-10-30T01:21:47.317Z,14.54
2022-10-30T01:22:47.298Z,14.53
2022-10-30T01:23:47.297Z,14.50
2022-10-30T01:24:47.303Z,14.45
2022-10-30T01:25:47.268Z,14.44
2022-10-30T01:26:47.258Z,14.40
2022-10-30T01:27:47.258Z,14.37
2022-10-30T01:28:47.236Z,14.37
2022-10-30T01:29:47.248Z,14.41
2022-10-30T01:30:47.212Z,14.43
2022-10-30T01:31:47.207Z,14.50
2022-10-30T01:32:47.207Z,14.54
2022-10-30T01:33:47.178Z,14.58
2022-10-30T01:34:47.177Z,14.58
2022-10-30T01:35:47.178Z,14.62
2022-10-30T01:36:47.146Z,14.66
2022-10-30T01:37:47.138Z,14.77
2022-10-30T01:38:47.129Z,14.85
2022-10-30T01:39:47.119Z,14.94
2022-10-30T01:40:47.211Z,15.04
2022-10-30T01:41:47.149Z,15.06
2022-10-30T01:42:47.083Z,15.10
2022-10-30T01:43:47.071Z,15.15
2022-10-30T01:44:47.059Z,15.19
2022-10-30T01:45:47.069Z,15.17
2022-10-30T01:46:47.039Z,15.17
2022-10-30T01:47:47.039Z,15.14
2022-10-30T01:48:47.012Z,15.09
2022-10-30T01:49:47.013Z,15.06
2022-10-30T01:50:46.991Z,15.00
2022-10-30T01:51:46.979Z,14.89
2022-10-30T01:52:46.992Z,14.82
2022-10-30T01:53:46.959Z,14.70
2022-10-30T01:54:46.948Z,14.62
2022-10-30T01:55:46.931Z,14.59
2022-10-30T01:56:46.919Z,14.50
2022-10-30T01:57:46.910Z,14.44
2022-10-30T01:58:46.920Z,14.41
2022-10-30T01:59:46.917Z,14.35
2022-10-30T02:00:46.885Z,14.28
2022-10-30T02:01:46.936Z,14.20
2022-10-30T02:02:46.898Z,14.14
2022-10-30T02:03:46.852Z,14.14
2022-10-30T02:04:46.850Z,14.17
2022-10-30T02:05:46.820Z,14.12
2022-10-30T02:06:46.804Z,14.08
2022-10-30T02:07:46.804Z,14.07
2022-10-30T02:08:46.779Z,14.07
2022-10-30T02:09:46.780Z,14.05
2022-10-30T02:10:46.780Z,14.07
2022-10-30T02:11:46.750Z,14.00
2022-10-30T02:12:46.747Z,13.97
2022-10-30T02:13:46.731Z,13.99
2022-10-30T02:14:46.710Z,13.99
2022-10-30T02:15:46.711Z,14.00
2022-10-30T02:16:46.710Z,13.97
2022-10-30T02:17:46.691Z,13.97
2022-10-30T02:18:46.675Z,13.97
2022-10-30T02:19:46.676Z,13.95
2022-10-30T02:20:46.642Z,13.92
2022-10-30T02:21:46.681Z,13.85
2022-10-30T02:22:46.689Z,13.81
2022-10-30T02:23:46.619Z,13.77
2022-10-30T02:24:46.601Z,13.72
2022-10-30T02:25:46.590Z,13.65
2022-10-30T02:26:46.580Z,13.62
2022-10-30T02:27:46.591Z,13.60
2022-10-30T02:28:46.560Z,13.57
2022-10-30T02:29:46.550Z,13.57
2022-10-30T02:30:46.540Z,13.54
2022-10-30T02:31:46.521Z,13.53
2022-10-30T02:32:46.510Z,13.49
2022-10-30T02:33:46.520Z,13.46
2022-10-30T02:34:46.489Z,13.39
2022-10-30T02:35:46.481Z,13.39
2022-10-30T02:36:46.469Z,13.38
2022-10-30T02:37:46.461Z,13.39
2022-10-30T02:38:46.470Z,13.41
2022-10-30T02:39:46.439Z,13.46
2022-10-30T02:40:46.420Z,13.50
2022-10-30T02:41:46.414Z,13.57
2022-10-30T02:42:46.401Z,13.57
2022-10-30T02:43:46.391Z,13.59
2022-10-30T02:44:46.399Z,13.59
2022-10-30T02:45:46.371Z,13.56
2022-10-30T02:46:46.356Z,13.57
2022-10-30T02:47:46.437Z,13.57
2022-10-30T02:48:46.330Z,13.57
2022-10-30T02:49:46.320Z,13.63
2022-10-30T02:50:46.332Z,13.68
2022-10-30T02:51:46.301Z,13.70
2022-10-30T02:52:46.282Z,13.74
2022-10-30T02:53:46.280Z,13.75
2022-10-30T02:54:46.271Z,13.75
2022-10-30T02:55:46.260Z,13.74
2022-10-30T02:56:46.261Z,13.75
2022-10-30T02:57:46.231Z,13.72
2022-10-30T02:58:46.220Z,13.77
2022-10-30T02:59:46.221Z,13.74
2022-10-30T03:00:46.222Z,13.77
2022-10-30T03:01:46.232Z,13.77
2022-10-30T03:02:46.236Z,13.77
2022-10-30T03:03:46.173Z,13.77
2022-10-30T03:04:46.152Z,13.74
2022-10-30T03:05:46.149Z,13.74
2022-10-30T03:06:46.130Z,13.75
2022-10-30T03:07:46.151Z,13.78
2022-10-30T03:08:46.111Z,13.79
2022-10-30T03:09:46.102Z,13.85
2022-10-30T03:10:46.090Z,13.87
2022-10-30T03:11:46.082Z,13.89
2022-10-30T03:12:46.061Z,13.87
2022-10-30T03:13:46.082Z,13.86
2022-10-30T03:14:46.041Z,13.85
2022-10-30T03:15:46.031Z,13.85
2022-10-30T03:16:46.021Z,13.87
2022-10-30T03:17:46.012Z,13.87
2022-10-30T03:18:46.006Z,13.89
2022-10-30T03:19:46.011Z,13.93
2022-10-30T03:20:45.985Z,13.95
2022-10-30T03:21:45.971Z,13.97
2022-10-30T03:22:45.952Z,13.97
2022-10-30T03:23:45.963Z,13.95
2022-10-30T03:24:45.959Z,13.93
2022-10-30T03:25:45.923Z,13.99
2022-10-30T03:26:45.910Z,14.00
2022-10-30T03:27:45.901Z,14.03
2022-10-30T03:28:45.881Z,14.00
2022-10-30T03:29:45.872Z,13.99
2022-10-30T03:30:45.901Z,13.93
2022-10-30T03:31:45.852Z,13.95
2022-10-30T03:32:45.842Z,13.93
2022-10-30T03:33:45.831Z,13.89
2022-10-30T03:34:45.821Z,13.85
2022-10-30T03:35:45.810Z,13.78
2022-10-30T03:36:45.812Z,13.78
2022-10-30T03:37:45.792Z,13.78
2022-10-30T03:38:45.773Z,13.77
2022-10-30T03:39:45.775Z,13.77
2022-10-30T03:40:45.751Z,13.81
2022-10-30T03:41:45.742Z,13.81
2022-10-30T03:42:45.752Z,13.83
2022-10-30T03:43:45.723Z,13.85
2022-10-30T03:44:45.703Z,13.89
2022-10-30T03:45:45.700Z,13.95
2022-10-30T03:46:45.684Z,13.96
2022-10-30T03:47:45.673Z,13.97
2022-10-30T03:48:45.682Z,13.99
2022-10-30T03:49:45.656Z,13.99
2022-10-30T03:50:45.645Z,13.95
2022-10-30T03:51:45.636Z,14.00
2022-10-30T03:52:45.621Z,14.00
2022-10-30T03:53:45.603Z,13.99
2022-10-30T03:54:45.613Z,13.97
2022-10-30T03:55:45.583Z,13.96
2022-10-30T03:56:45.571Z,13.93
2022-10-30T03:57:45.561Z,13.93
2022-10-30T03:58:45.552Z,13.89
2022-10-30T03:59:45.549Z,13.90
2022-10-30T04:00:45.542Z,13.90
2022-10-30T04:01:45.708Z,13.90
2022-10-30T04:02:45.506Z,13.89
2022-10-30T04:03:45.493Z,13.89
2022-10-30T04:04:45.485Z,13.87
2022-10-30T04:05:45.472Z,13.86
2022-10-30T04:06:45.473Z,13.85
2022-10-30T04:07:45.451Z,13.85
2022-10-30T04:08:45.440Z,13.83
2022-10-30T04:09:45.431Z,13.83
2022-10-30T04:10:45.483Z,13.83
2022-10-30T04:11:45.436Z,13.83
2022-10-30T04:12:45.390Z,13.77
2022-10-30T04:13:45.383Z,13.78
2022-10-30T04:14:45.366Z,13.74
2022-10-30T04:15:45.362Z,13.75
2022-10-30T04:16:45.345Z,13.79
2022-10-30T04:17:45.364Z,13.83
2022-10-30T04:18:45.322Z,13.83
2022-10-30T04:19:45.322Z,13.85
2022-10-30T04:20:45.302Z,13.87
2022-10-30T04:21:45.292Z,13.87
2022-10-30T04:22:45.273Z,13.86
2022-10-30T04:23:45.316Z,13.83
2022-10-30T04:24:45.254Z,13.83
2022-10-30T04:25:45.244Z,13.81
2022-10-30T04:26:45.240Z,13.86
2022-10-30T04:27:45.223Z,13.89
2022-10-30T04:28:45.214Z,13.89
2022-10-30T04:29:45.223Z,13.90
2022-10-30T04:30:45.185Z,13.89
2022-10-30T04:31:45.181Z,13.90
2022-10-30T04:32:45.164Z,13.90
2022-10-30T04:33:45.154Z,13.90
2022-10-30T04:34:45.150Z,13.89
2022-10-30T04:35:45.153Z,13.90
2022-10-30T04:36:45.113Z,13.89
2022-10-30T04:37:45.113Z,13.87
2022-10-30T04:38:45.102Z,13.81
2022-10-30T04:39:46.410Z,13.83
2022-10-30T04:40:45.100Z,13.86
2022-10-30T04:41:45.064Z,13.89
2022-10-30T04:42:45.054Z,13.92
2022-10-30T04:43:45.044Z,13.95
2022-10-30T04:44:45.032Z,13.92
2022-10-30T04:45:45.023Z,13.86
2022-10-30T04:46:45.026Z,13.86
2022-10-30T04:47:45.004Z,13.86
2022-10-30T04:48:44.992Z,13.89
2022-10-30T04:49:44.982Z,13.89
2022-10-30T04:50:44.967Z,13.86
2022-10-30T04:51:44.974Z,13.87
2022-10-30T04:52:44.946Z,13.89
2022-10-30T04:53:44.933Z,13.89
2022-10-30T04:54:44.913Z,13.90
2022-10-30T04:55:44.912Z,13.90
2022-10-30T04:56:44.895Z,13.90
2022-10-30T04:57:44.913Z,13.93
2022-10-30T04:58:44.874Z,13.95
2022-10-30T04:59:44.865Z,13.90
2022-10-30T05:00:44.854Z,13.89
2022-10-30T05:01:44.967Z,13.93
2022-10-30T05:03:46.203Z,13.96
2022-10-30T05:04:44.805Z,13.97
2022-10-30T05:05:44.804Z,13.99
2022-10-30T05:06:44.784Z,14.04
2022-10-30T05:07:44.775Z,13.99
2022-10-30T05:08:44.786Z,13.99
2022-10-30T05:09:44.755Z,14.03
2022-10-30T05:10:44.743Z,14.08
2022-10-30T05:11:44.736Z,14.11
2022-10-30T05:12:44.715Z,14.14
2022-10-30T05:13:44.705Z,14.14
2022-10-30T05:14:44.704Z,14.12
2022-10-30T05:15:44.724Z,14.11
2022-10-30T05:16:44.673Z,14.11
2022-10-30T05:17:44.667Z,14.11
2022-10-30T05:18:44.663Z,14.08
2022-10-30T05:19:44.667Z,14.10
2022-10-30T05:20:44.626Z,14.10
2022-10-30T05:21:44.618Z,14.08
2022-10-30T05:22:44.607Z,14.07
2022-10-30T05:23:44.602Z,14.05
2022-10-30T05:24:44.579Z,14.03
2022-10-30T05:25:44.718Z,14.04
2022-10-30T05:26:44.554Z,14.00
2022-10-30T05:27:44.545Z,13.99
2022-10-30T05:28:44.536Z,14.00
2022-10-30T05:30:36.232Z,14.05
2022-10-30T05:31:36.241Z,14.05
2022-10-30T05:32:36.220Z,14.05
2022-10-30T05:33:36.210Z,14.04
2022-10-30T05:34:36.190Z,14.07
2022-10-30T05:35:36.180Z,14.08
2022-10-30T05:36:36.193Z,14.10
2022-10-30T05:37:36.160Z,14.10
2022-10-30T05:38:36.149Z,14.10
2022-10-30T05:39:36.131Z,14.11
2022-10-30T05:40:36.123Z,14.08
2022-10-30T05:41:36.120Z,14.04
2022-10-30T05:42:36.129Z,13.99
2022-10-30T05:43:36.090Z,13.96
2022-10-30T05:44:59.433Z,13.96
2022-10-30T05:45:37.071Z,13.99
2022-10-30T05:46:36.049Z,13.99
2022-10-30T05:47:36.070Z,13.96
2022-10-30T05:48:36.069Z,13.95
2022-10-30T05:49:36.027Z,13.93
2022-10-30T05:50:36.009Z,13.92
2022-10-30T05:51:38.109Z,13.90
2022-10-30T05:52:35.990Z,13.90
2022-10-30T05:53:35.980Z,13.90
2022-10-30T05:54:35.989Z,13.86
2022-10-30T05:55:35.958Z,13.83
2022-10-30T05:56:35.940Z,13.86
2022-10-30T05:57:35.930Z,13.85
2022-10-30T05:58:35.919Z,13.83
2022-10-30T05:59:35.943Z,13.81
2022-10-30T06:00:35.910Z,13.79
2022-10-30T06:01:36.015Z,13.77
2022-10-30T06:02:35.921Z,13.79
2022-10-30T06:03:35.861Z,13.83
2022-10-30T06:04:35.869Z,13.83
2022-10-30T06:05:35.869Z,13.86
2022-10-30T06:06:35.830Z,13.87
2022-10-30T06:07:35.819Z,13.93
2022-10-30T06:08:35.820Z,13.97
2022-10-30T06:09:35.811Z,13.97
2022-10-30T06:10:35.790Z,13.97
2022-10-30T06:11:35.790Z,13.97
2022-10-30T06:12:35.771Z,13.97
2022-10-30T06:13:35.751Z,13.96
2022-10-30T06:14:35.743Z,13.99
2022-10-30T06:15:35.748Z,14.00
2022-10-30T06:16:35.723Z,14.05
2022-10-30T06:17:35.720Z,14.05
2022-10-30T06:18:35.701Z,14.07
2022-10-30T06:19:35.741Z,14.05
2022-10-30T06:20:35.671Z,14.05
2022-10-30T06:21:35.671Z,14.05
2022-10-30T06:22:35.661Z,14.07
2022-10-30T06:23:35.650Z,14.04
2022-10-30T06:24:35.629Z,14.05
2022-10-30T06:25:40.613Z,14.04
2022-10-30T06:26:36.641Z,14.04
2022-10-30T06:27:35.598Z,14.03
2022-10-30T06:28:35.601Z,14.00
2022-10-30T06:29:35.572Z,13.95
2022-10-30T06:30:35.562Z,13.99
2022-10-30T06:31:35.541Z,14.00
2022-10-30T06:32:35.539Z,13.97
2022-10-30T06:33:35.521Z,13.97
2022-10-30T06:34:35.540Z,13.95
2022-10-30T06:35:35.511Z,13.90
2022-10-30T06:36:35.543Z,13.89
2022-10-30T06:37:35.481Z,13.86
2022-10-30T06:38:35.471Z,13.78
2022-10-30T06:39:35.462Z,13.72
2022-10-30T06:40:35.470Z,13.71
2022-10-30T06:41:35.431Z,13.75
2022-10-30T06:42:35.442Z,13.78
2022-10-30T06:43:35.641Z,13.83
2022-10-30T06:44:35.403Z,13.86
2022-10-30T06:45:35.412Z,13.85
2022-10-30T06:46:35.400Z,13.85
2022-10-30T06:47:35.394Z,13.85
2022-10-30T06:48:35.360Z,13.87
2022-10-30T06:49:35.341Z,13.89
2022-10-30T06:50:35.342Z,13.92
2022-10-30T06:51:35.341Z,13.93
2022-10-30T06:52:35.312Z,13.89
2022-10-30T06:53:35.301Z,13.90
2022-10-30T06:54:35.291Z,13.92
2022-10-30T06:55:35.273Z,13.95
2022-10-30T06:56:35.362Z,14.03
2022-10-30T06:57:35.252Z,14.04
2022-10-30T06:58:35.250Z,14.05
2022-10-30T06:59:35.232Z,14.08
2022-10-30T07:00:35.263Z,14.08
2022-10-30T07:01:35.264Z,14.12
2022-10-30T07:02:35.222Z,14.18
2022-10-30T07:03:35.182Z,14.28
2022-10-30T07:04:35.180Z,14.29
2022-10-30T07:05:35.169Z,14.37
2022-10-30T07:06:35.152Z,14.50
2022-10-30T07:07:35.141Z,14.63
2022-10-30T07:08:35.170Z,14.79
2022-10-30T07:09:35.122Z,15.17
2022-10-30T07:10:35.111Z,15.51
2022-10-30T07:11:35.102Z,15.83
2022-10-30T07:12:35.090Z,16.16
2022-10-30T07:13:35.092Z,16.41
2022-10-30T07:14:35.071Z,16.54
2022-10-30T07:15:35.119Z,16.61
2022-10-30T07:16:35.054Z,16.68
2022-10-30T07:17:35.061Z,16.76
2022-10-30T07:18:35.022Z,16.89
2022-10-30T07:19:35.035Z,16.96
2022-10-30T07:20:35.001Z,17.04
2022-10-30T07:21:34.982Z,17.08
2022-10-30T07:22:34.982Z,17.16
2022-10-30T07:23:34.967Z,17.24
2022-10-30T07:24:34.965Z,17.24
2022-10-30T07:25:34.963Z,17.26
2022-10-30T07:26:34.932Z,17.23
2022-10-30T07:27:34.913Z,17.19
2022-10-30T07:28:34.911Z,17.15
2022-10-30T07:29:34.894Z,17.06
2022-10-30T07:30:34.886Z,17.04
2022-10-30T07:31:41.921Z,17.08
2022-10-30T07:32:35.863Z,17.04
2022-10-30T07:33:34.843Z,16.96
2022-10-30T07:34:34.835Z,16.99
2022-10-30T07:35:34.824Z,17.05
2022-10-30T07:36:34.881Z,17.23
2022-10-30T07:37:34.804Z,17.27
2022-10-30T07:38:34.794Z,17.41
2022-10-30T07:39:34.782Z,17.51
2022-10-30T07:40:34.774Z,17.60
2022-10-30T07:41:34.756Z,17.85
2022-10-30T07:42:34.777Z,18.10
2022-10-30T07:43:34.736Z,18.29
2022-10-30T07:44:34.733Z,18.58
2022-10-30T07:45:34.704Z,18.66
2022-10-30T07:46:34.705Z,18.89
2022-10-30T07:47:34.694Z,19.16
2022-10-30T07:48:34.697Z,19.49
2022-10-30T07:49:34.674Z,19.76
2022-10-30T07:50:34.655Z,19.92
2022-10-30T07:51:34.655Z,20.16
2022-10-30T07:52:34.635Z,20.37
2022-10-30T07:53:34.646Z,20.55
2022-10-30T07:54:34.617Z,20.75
2022-10-30T07:55:34.597Z,20.81
2022-10-30T07:56:34.586Z,20.69
2022-10-30T07:57:34.581Z,20.37
2022-10-30T07:58:34.566Z,20.13
2022-10-30T07:59:34.676Z,20.11
2022-10-30T08:00:34.547Z,20.04
2022-10-30T08:01:34.592Z,20.39
2022-10-30T08:02:34.613Z,20.65
2022-10-30T08:03:34.511Z,20.55
2022-10-30T08:04:34.524Z,20.41
2022-10-30T08:05:34.486Z,20.31
2022-10-30T08:06:34.477Z,20.66
2022-10-30T08:07:34.465Z,20.43
2022-10-30T08:08:37.832Z,20.21
2022-10-30T08:09:35.467Z,20.29
2022-10-30T08:10:34.437Z,20.44
2022-10-30T08:11:34.417Z,20.48
2022-10-30T08:12:34.408Z,20.13
2022-10-30T08:13:34.398Z,20.13
2022-10-30T08:14:34.387Z,20.11
2022-10-30T08:15:34.399Z,20.10
2022-10-30T08:16:34.369Z,20.55
2022-10-30T08:17:34.983Z,20.72
2022-10-30T08:18:34.352Z,20.66
2022-10-30T08:19:34.329Z,20.67
2022-10-30T08:20:34.393Z,20.40
2022-10-30T08:21:34.320Z,20.41
2022-10-30T08:22:34.330Z,20.32
2022-10-30T08:23:34.289Z,20.41
2022-10-30T08:24:34.282Z,20.69
2022-10-30T08:25:34.270Z,20.95
2022-10-30T08:26:34.260Z,21.12
2022-10-30T08:27:34.250Z,21.39
2022-10-30T08:28:34.260Z,21.37
2022-10-30T08:29:34.221Z,21.48
2022-10-30T08:30:34.221Z,21.67
2022-10-30T08:31:34.202Z,21.80
2022-10-30T08:32:34.191Z,21.99
2022-10-30T08:33:34.204Z,21.79
2022-10-30T08:34:34.175Z,21.42
2022-10-30T08:36:34.151Z,21.18
2022-10-30T08:37:34.131Z,21.05
2022-10-30T08:38:34.125Z,21.07
2022-10-30T08:39:34.122Z,21.12
2022-10-30T08:40:34.103Z,21.37
2022-10-30T08:41:34.092Z,21.80
2022-10-30T08:42:34.082Z,22.04
2022-10-30T08:43:34.084Z,21.98
2022-10-30T08:44:34.083Z,22.39
2022-10-30T08:45:34.044Z,22.69
2022-10-30T08:46:34.042Z,22.66
2022-10-30T08:47:34.024Z,22.45
2022-10-30T08:48:34.013Z,22.50
2022-10-30T08:49:34.002Z,22.38
2022-10-30T08:50:34.014Z,22.23
2022-10-30T08:51:33.981Z,21.64
2022-10-30T08:52:33.964Z,21.61
2022-10-30T08:53:33.954Z,21.22
2022-10-30T08:54:33.955Z,21.46
2022-10-30T08:55:33.933Z,21.51
2022-10-30T08:56:33.944Z,21.40
2022-10-30T08:57:33.913Z,21.39
2022-10-30T08:58:33.904Z,21.45
2022-10-30T08:59:33.886Z,21.85
2022-10-30T09:00:33.875Z,21.72
2022-10-30T09:01:33.978Z,21.72
2022-10-30T09:02:34.016Z,21.79
2022-10-30T09:03:33.845Z,21.80
2022-10-30T09:04:33.834Z,21.82
2022-10-30T09:05:33.824Z,21.91
2022-10-30T09:06:33.815Z,22.28
2022-10-30T09:07:33.797Z,22.54
2022-10-30T09:08:33.815Z,22.88
2022-10-30T09:09:33.776Z,22.93
2022-10-30T09:10:33.766Z,22.98
2022-10-30T09:11:33.748Z,22.93
2022-10-30T09:12:33.786Z,23.21
2022-10-30T09:13:33.726Z,23.47
2022-10-30T09:14:33.739Z,23.18
2022-10-30T09:15:33.719Z,22.99
2022-10-30T09:16:33.705Z,22.78
2022-10-30T09:17:33.691Z,22.94
2022-10-30T09:18:33.679Z,23.08
2022-10-30T09:19:33.688Z,23.10
2022-10-30T09:20:33.675Z,22.91
2022-10-30T09:21:33.639Z,22.55
2022-10-30T09:22:33.641Z,22.28
2022-10-30T09:23:33.619Z,22.14
2022-10-30T09:24:33.617Z,22.00
2022-10-30T09:25:33.631Z,21.60
2022-10-30T09:26:33.588Z,21.32
2022-10-30T09:27:33.570Z,21.25
2022-10-30T09:28:33.577Z,21.09
2022-10-30T09:29:33.552Z,21.05
2022-10-30T09:30:33.550Z,21.02
2022-10-30T09:31:33.550Z,20.96
2022-10-30T09:32:33.520Z,20.92
2022-10-30T09:33:33.511Z,20.82
2022-10-30T09:34:33.503Z,20.75
2022-10-30T09:35:33.497Z,20.75
2022-10-30T09:36:33.483Z,20.75
2022-10-30T09:37:33.529Z,20.81
2022-10-30T09:38:33.450Z,21.00
2022-10-30T09:39:33.444Z,21.15
2022-10-30T09:40:33.431Z,21.33
2022-10-30T09:41:33.413Z,21.40
2022-10-30T09:42:33.432Z,21.51
2022-10-30T09:43:33.391Z,21.43
2022-10-30T09:44:33.382Z,21.42
2022-10-30T09:45:33.372Z,21.32
2022-10-30T09:46:33.362Z,21.05
2022-10-30T09:47:33.358Z,21.00
2022-10-30T09:48:33.372Z,21.20
2022-10-30T09:49:33.324Z,21.33
2022-10-30T09:50:35.839Z,21.42
2022-10-30T09:51:34.302Z,21.24
2022-10-30T09:52:33.306Z,21.12
2022-10-30T09:53:33.283Z,21.00
2022-10-30T09:54:33.293Z,20.85
2022-10-30T09:55:33.264Z,20.87
2022-10-30T09:56:33.257Z,21.09
2022-10-30T09:57:33.243Z,21.18
2022-10-30T09:58:33.223Z,21.14
2022-10-30T09:59:33.234Z,21.03
2022-10-30T10:00:33.203Z,21.03
2022-10-30T10:01:33.330Z,21.14
2022-10-30T10:02:33.337Z,21.30
2022-10-30T10:03:33.164Z,21.32
2022-10-30T10:04:33.165Z,21.06
2022-10-30T10:05:33.176Z,20.99
2022-10-30T10:06:33.146Z,21.11
2022-10-30T10:07:33.126Z,21.11
2022-10-30T10:08:33.114Z,21.32
2022-10-30T10:09:33.188Z,21.36
2022-10-30T10:10:33.104Z,21.18
2022-10-30T10:11:33.095Z,21.05
2022-10-30T10:12:33.065Z,20.95
2022-10-30T10:13:33.054Z,21.00
2022-10-30T10:14:33.046Z,20.95
2022-10-30T10:15:33.025Z,21.07
2022-10-30T10:16:33.037Z,21.07
2022-10-30T10:17:33.009Z,21.27
2022-10-30T10:19:32.986Z,21.42
2022-10-30T10:20:32.967Z,21.58
2022-10-30T10:21:32.964Z,21.70
2022-10-30T10:22:32.975Z,21.73
2022-10-30T10:23:32.936Z,21.70
2022-10-30T10:24:32.927Z,21.55
2022-10-30T10:25:32.917Z,21.46
2022-10-30T10:26:32.898Z,21.35
2022-10-30T10:27:32.895Z,21.37
2022-10-30T10:28:36.675Z,21.24
2022-10-30T10:29:32.868Z,21.35
2022-10-30T10:30:32.856Z,21.46
2022-10-30T10:31:32.847Z,21.25
2022-10-30T10:32:32.829Z,21.48
2022-10-30T10:33:32.851Z,21.61
2022-10-30T10:34:32.811Z,21.76
2022-10-30T10:35:32.798Z,21.85
2022-10-30T10:36:32.780Z,21.80
2022-10-30T10:37:32.778Z,21.91
2022-10-30T10:38:32.759Z,21.72
2022-10-30T10:39:32.769Z,21.70
2022-10-30T10:40:32.739Z,21.85
2022-10-30T10:41:32.732Z,21.62
2022-10-30T10:42:32.710Z,21.55
2022-10-30T10:43:32.709Z,21.61
2022-10-30T10:44:32.691Z,21.64
2022-10-30T10:45:32.710Z,21.69
2022-10-30T10:46:32.668Z,21.70
2022-10-30T10:47:32.660Z,21.61
2022-10-30T10:48:32.639Z,21.61
2022-10-30T10:49:35.777Z,21.72
2022-10-30T10:50:33.655Z,21.67
2022-10-30T10:51:32.611Z,21.58
2022-10-30T10:52:32.602Z,21.70
2022-10-30T10:53:32.592Z,21.77
2022-10-30T10:54:32.571Z,21.72
2022-10-30T10:55:32.563Z,21.79
2022-10-30T10:56:32.571Z,21.91
2022-10-30T10:57:32.541Z,21.99
2022-10-30T10:58:32.531Z,21.89
2022-10-30T10:59:32.521Z,21.76
2022-10-30T11:00:32.503Z,21.73
2022-10-30T11:01:32.746Z,21.73
2022-10-30T11:02:32.577Z,21.67
2022-10-30T11:03:32.473Z,21.57
2022-10-30T11:04:32.464Z,21.43
2022-10-30T11:05:32.453Z,21.46
2022-10-30T11:06:32.435Z,21.51
2022-10-30T11:07:32.481Z,21.73
2022-10-30T11:08:32.414Z,21.80
2022-10-30T11:09:32.405Z,21.64
2022-10-30T11:10:32.393Z,21.60
2022-10-30T11:11:32.383Z,21.67
2022-10-30T11:12:35.376Z,21.69
2022-10-30T11:13:32.412Z,21.76
2022-10-30T11:14:32.344Z,21.72
2022-10-30T11:15:32.334Z,21.64
2022-10-30T11:16:32.315Z,21.72
2022-10-30T11:17:32.315Z,21.93
2022-10-30T11:18:32.406Z,21.96
2022-10-30T11:19:32.285Z,22.25
2022-10-30T11:20:32.275Z,22.38
2022-10-30T11:21:32.264Z,22.43
2022-10-30T11:22:32.255Z,22.35
2022-10-30T11:23:32.243Z,22.26
2022-10-30T11:24:32.258Z,22.13
2022-10-30T11:25:32.216Z,21.93
2022-10-30T11:26:32.214Z,21.99
2022-10-30T11:27:32.196Z,21.88
2022-10-30T11:28:32.176Z,21.98
2022-10-30T11:29:32.176Z,22.18
2022-10-30T11:30:32.192Z,22.45
2022-10-30T11:31:39.202Z,22.53
2022-10-30T11:32:32.217Z,22.60
2022-10-30T11:33:32.131Z,22.72
2022-10-30T11:34:32.111Z,22.87
2022-10-30T11:35:32.112Z,22.76
2022-10-30T11:36:32.111Z,22.76
2022-10-30T11:37:32.090Z,22.88
2022-10-30T11:38:32.069Z,22.94
2022-10-30T11:39:32.061Z,22.98
2022-10-30T11:40:32.050Z,22.88
2022-10-30T11:41:32.061Z,22.72
2022-10-30T11:42:32.032Z,22.87
2022-10-30T11:43:32.012Z,22.76
2022-10-30T11:44:32.002Z,22.83
2022-10-30T11:45:31.992Z,22.83
2022-10-30T11:46:31.982Z,22.96
2022-10-30T11:47:32.082Z,22.90
2022-10-30T11:48:31.962Z,22.91
2022-10-30T11:49:31.964Z,22.93
2022-10-30T11:50:31.937Z,22.98
2022-10-30T11:51:32.006Z,23.00
2022-10-30T11:52:31.915Z,23.00
2022-10-30T11:53:31.943Z,23.10
2022-10-30T11:54:31.896Z,23.06
2022-10-30T11:55:31.895Z,23.10
2022-10-30T11:56:31.873Z,22.96
2022-10-30T11:57:31.864Z,22.96
2022-10-30T11:58:31.848Z,22.98
2022-10-30T11:59:31.860Z,23.00
2022-10-30T12:00:31.828Z,23.00
2022-10-30T12:01:31.863Z,23.09
2022-10-30T12:02:31.953Z,23.06
2022-10-30T12:03:31.796Z,23.34
2022-10-30T12:04:31.806Z,23.43
2022-10-30T12:05:31.768Z,23.37
2022-10-30T12:06:31.756Z,23.20
2022-10-30T12:07:31.747Z,23.17
2022-10-30T12:08:31.737Z,23.13
2022-10-30T12:09:31.728Z,23.18
2022-10-30T12:10:31.747Z,23.34
2022-10-30T12:11:31.708Z,23.54
2022-10-30T12:12:31.699Z,23.58
2022-10-30T12:13:31.686Z,23.65
2022-10-30T12:14:31.667Z,23.56
2022-10-30T12:15:31.658Z,23.61
2022-10-30T12:16:31.687Z,23.65
2022-10-30T12:17:31.638Z,23.62
2022-10-30T12:18:31.627Z,23.71
2022-10-30T12:19:31.618Z,23.83
2022-10-30T12:20:31.598Z,23.76
2022-10-30T12:21:31.621Z,23.65
2022-10-30T12:22:32.389Z,23.61
2022-10-30T12:23:31.589Z,23.55
2022-10-30T12:24:31.560Z,23.56
2022-10-30T12:25:31.549Z,23.66
2022-10-30T12:26:31.543Z,23.59
2022-10-30T12:27:31.579Z,23.37
2022-10-30T12:28:31.515Z,23.43
2022-10-30T12:29:48.072Z,23.44
2022-10-30T12:30:32.493Z,23.48
2022-10-30T12:31:31.480Z,23.59
2022-10-30T12:32:34.532Z,23.73
2022-10-30T12:33:32.519Z,23.80
2022-10-30T12:34:31.468Z,23.68
2022-10-30T12:35:31.440Z,23.62
2022-10-30T12:36:31.421Z,23.56
2022-10-30T12:37:31.423Z,23.48
2022-10-30T12:38:31.403Z,23.59
2022-10-30T12:39:31.413Z,23.74
2022-10-30T12:40:31.383Z,23.87
2022-10-30T12:41:31.375Z,23.78
2022-10-30T12:42:31.353Z,23.88
2022-10-30T12:43:31.353Z,23.95
2022-10-30T12:44:31.341Z,23.93
2022-10-30T12:45:31.352Z,23.98
2022-10-30T12:46:31.315Z,23.88
2022-10-30T12:47:31.313Z,24.05
2022-10-30T12:48:31.295Z,24.24
2022-10-30T12:49:31.282Z,24.11
2022-10-30T12:50:31.272Z,24.01
2022-10-30T12:51:31.273Z,24.08
2022-10-30T12:52:31.253Z,24.17
2022-10-30T12:53:31.242Z,24.20
2022-10-30T12:54:31.223Z,23.91
2022-10-30T12:55:31.218Z,23.71
2022-10-30T12:56:31.224Z,23.62
2022-10-30T12:57:31.195Z,23.55